sensor_id;sensor_type;location;lat;lon;timestamp;pressure;altitude;pressure_sealevel;temperature;humidity
24302;BME280;12421;49.732;20.078;2022-08-11T00:04:02;97571.26;;;13.86;73.87
24302;BME280;12421;49.732;20.078;2022-08-11T00:14:15;97565.70;;;13.73;73.71
24302;BME280;12421;49.732;20.078;2022-08-11T00:24:19;97565.14;;;13.47;73.83
24302;BME280;12421;49.732;20.078;2022-08-11T00:34:25;97567.99;;;13.32;73.75
24302;BME280;12421;49.732;20.078;2022-08-11T00:44:40;97571.47;;;12.91;73.85
24302;BME280;12421;49.732;20.078;2022-08-11T01:05:42;97573.11;;;12.55;75.01
24302;BME280;12421;49.732;20.078;2022-08-11T01:58:55;97556.48;;;11.83;76.58
24302;BME280;12421;49.732;20.078;2022-08-11T02:52:40;97552.24;;;11.46;77.39
24302;BME280;12421;49.732;20.078;2022-08-11T03:03:20;97550.88;;;11.64;77.27
24302;BME280;12421;49.732;20.078;2022-08-11T03:13:28;97549.47;;;11.77;77.12
24302;BME280;12421;49.732;20.078;2022-08-11T03:24:08;97548.45;;;12.01;77.26
24302;BME280;12421;49.732;20.078;2022-08-11T03:34:20;97552.74;;;12.17;76.90
24302;BME280;12421;49.732;20.078;2022-08-11T03:44:42;97557.16;;;12.13;76.79
24302;BME280;12421;49.732;20.078;2022-08-11T03:55:03;97553.66;;;12.10;77.24
24302;BME280;12421;49.732;20.078;2022-08-11T04:58:47;97544.99;;;14.34;75.65
24302;BME280;12421;49.732;20.078;2022-08-11T05:09:29;97547.48;;;14.44;76.22
24302;BME280;12421;49.732;20.078;2022-08-11T05:19:39;97551.88;;;14.70;75.89
24302;BME280;12421;49.732;20.078;2022-08-11T05:30:13;97554.75;;;14.83;76.19
24302;BME280;12421;49.732;20.078;2022-08-11T05:40:34;97559.66;;;15.04;76.36
24302;BME280;12421;49.732;20.078;2022-08-11T05:51:00;97563.19;;;15.30;76.31
24302;BME280;12421;49.732;20.078;2022-08-11T06:11:41;97566.91;;;15.86;76.74
24302;BME280;12421;49.732;20.078;2022-08-11T06:21:45;97570.37;;;16.68;76.14
24302;BME280;12421;49.732;20.078;2022-08-11T06:31:57;97563.13;;;17.72;75.05
24302;BME280;12421;49.732;20.078;2022-08-11T06:42:12;97562.21;;;19.25;72.46
24302;BME280;12421;49.732;20.078;2022-08-11T06:52:16;97555.03;;;21.21;67.72
24302;BME280;12421;49.732;20.078;2022-08-11T07:02:30;97556.55;;;22.72;61.41
24302;BME280;12421;49.732;20.078;2022-08-11T07:12:40;97554.82;;;24.01;57.58
24302;BME280;12421;49.732;20.078;2022-08-11T07:23:09;97544.73;;;24.84;51.88
24302;BME280;12421;49.732;20.078;2022-08-11T07:33:46;97546.45;;;25.16;50.57
24302;BME280;12421;49.732;20.078;2022-08-11T07:43:54;97544.14;;;25.69;48.75
24302;BME280;12421;49.732;20.078;2022-08-11T07:54:00;97540.09;;;25.83;47.71
24302;BME280;12421;49.732;20.078;2022-08-11T08:04:04;97553.05;;;25.92;48.32
24302;BME280;12421;49.732;20.078;2022-08-11T08:14:25;97555.59;;;26.37;46.39
24302;BME280;12421;49.732;20.078;2022-08-11T08:24:47;97559.18;;;24.83;47.24
24302;BME280;12421;49.732;20.078;2022-08-11T08:34:50;97549.06;;;24.39;47.92
24302;BME280;12421;49.732;20.078;2022-08-11T08:45:01;97539.84;;;23.78;48.04
24302;BME280;12421;49.732;20.078;2022-08-11T08:55:13;97537.23;;;23.85;49.35
24302;BME280;12421;49.732;20.078;2022-08-11T09:05:18;97529.94;;;23.96;48.50
24302;BME280;12421;49.732;20.078;2022-08-11T09:15:22;97529.61;;;24.34;48.38
24302;BME280;12421;49.732;20.078;2022-08-11T09:25:27;97523.08;;;24.23;48.08
24302;BME280;12421;49.732;20.078;2022-08-11T09:35:51;97517.19;;;24.47;48.55
24302;BME280;12421;49.732;20.078;2022-08-11T09:45:54;97504.58;;;24.32;47.38
24302;BME280;12421;49.732;20.078;2022-08-11T09:55:59;97504.88;;;23.78;48.19
24302;BME280;12421;49.732;20.078;2022-08-11T10:06:04;97493.95;;;23.98;47.70
24302;BME280;12421;49.732;20.078;2022-08-11T10:16:27;97489.98;;;23.88;45.65
24302;BME280;12421;49.732;20.078;2022-08-11T10:26:31;97480.38;;;23.67;46.05
24302;BME280;12421;49.732;20.078;2022-08-11T10:36:53;97460.00;;;23.63;46.59
24302;BME280;12421;49.732;20.078;2022-08-11T10:46:55;97439.57;;;24.00;44.13
24302;BME280;12421;49.732;20.078;2022-08-11T10:57:16;97432.98;;;24.21;43.06
24302;BME280;12421;49.732;20.078;2022-08-11T11:18:08;97426.67;;;23.98;44.20
24302;BME280;12421;49.732;20.078;2022-08-11T11:28:24;97397.58;;;24.20;44.44
24302;BME280;12421;49.732;20.078;2022-08-11T11:38:39;97391.98;;;25.00;42.33
24302;BME280;12421;49.732;20.078;2022-08-11T11:48:42;97375.94;;;26.04;41.85
24302;BME280;12421;49.732;20.078;2022-08-11T11:58:45;97402.17;;;25.66;40.62
24302;BME280;12421;49.732;20.078;2022-08-11T12:09:06;97389.27;;;24.93;45.54
24302;BME280;12421;49.732;20.078;2022-08-11T12:19:11;97369.66;;;25.26;49.61
24302;BME280;12421;49.732;20.078;2022-08-11T12:29:17;97360.80;;;25.94;46.05
24302;BME280;12421;49.732;20.078;2022-08-11T12:39:22;97389.13;;;25.31;43.95
24302;BME280;12421;49.732;20.078;2022-08-11T12:49:31;97394.03;;;24.81;42.31
24302;BME280;12421;49.732;20.078;2022-08-11T12:59:54;97370.09;;;24.60;41.98
24302;BME280;12421;49.732;20.078;2022-08-11T13:10:16;97388.23;;;24.12;43.83
24302;BME280;12421;49.732;20.078;2022-08-11T13:20:23;97409.92;;;22.94;44.22
24302;BME280;12421;49.732;20.078;2022-08-11T13:30:30;97413.05;;;22.15;46.50
24302;BME280;12421;49.732;20.078;2022-08-11T13:40:53;97397.03;;;21.86;47.53
24302;BME280;12421;49.732;20.078;2022-08-11T13:50:56;97381.63;;;21.71;47.46
24302;BME280;12421;49.732;20.078;2022-08-11T14:01:18;97374.57;;;21.60;47.39
24302;BME280;12421;49.732;20.078;2022-08-11T14:11:21;97367.94;;;21.30;48.21
24302;BME280;12421;49.732;20.078;2022-08-11T14:21:43;97358.72;;;21.17;50.96
24302;BME280;12421;49.732;20.078;2022-08-11T14:32:06;97375.52;;;21.31;51.63
24302;BME280;12421;49.732;20.078;2022-08-11T14:42:12;97370.19;;;21.49;49.89
24302;BME280;12421;49.732;20.078;2022-08-11T14:52:34;97374.68;;;22.13;48.36
24302;BME280;12421;49.732;20.078;2022-08-11T15:02:37;97357.37;;;22.46;46.80
24302;BME280;12421;49.732;20.078;2022-08-11T15:12:59;97350.82;;;21.98;47.68
24302;BME280;12421;49.732;20.078;2022-08-11T15:23:02;97334.28;;;21.43;48.64
24302;BME280;12421;49.732;20.078;2022-08-11T15:33:25;97331.68;;;21.60;49.42
24302;BME280;12421;49.732;20.078;2022-08-11T15:43:52;97327.35;;;21.66;47.97
24302;BME280;12421;49.732;20.078;2022-08-11T15:54:18;97336.31;;;21.75;48.72
24302;BME280;12421;49.732;20.078;2022-08-11T16:04:24;97344.28;;;21.58;48.47
24302;BME280;12421;49.732;20.078;2022-08-11T16:14:30;97353.26;;;21.39;49.20
24302;BME280;12421;49.732;20.078;2022-08-11T16:24:53;97331.83;;;21.57;49.22
24302;BME280;12421;49.732;20.078;2022-08-11T16:35:03;97311.41;;;21.36;49.90
24302;BME280;12421;49.732;20.078;2022-08-11T16:45:28;97321.22;;;21.17;50.18
24302;BME280;12421;49.732;20.078;2022-08-11T16:55:50;97340.75;;;20.81;51.92
24302;BME280;12421;49.732;20.078;2022-08-11T17:05:55;97326.16;;;20.47;52.65
24302;BME280;12421;49.732;20.078;2022-08-11T17:16:19;97316.34;;;20.28;52.96
24302;BME280;12421;49.732;20.078;2022-08-11T17:26:32;97313.73;;;20.05;52.83
24302;BME280;12421;49.732;20.078;2022-08-11T17:36:56;97317.00;;;19.80;53.67
24302;BME280;12421;49.732;20.078;2022-08-11T17:47:00;97332.00;;;19.51;54.72
24302;BME280;12421;49.732;20.078;2022-08-11T17:57:22;97337.94;;;19.36;55.18
24302;BME280;12421;49.732;20.078;2022-08-11T18:07:45;97337.11;;;19.10;55.67
24302;BME280;12421;49.732;20.078;2022-08-11T18:18:06;97352.01;;;18.81;57.01
24302;BME280;12421;49.732;20.078;2022-08-11T18:28:31;97364.39;;;18.59;58.34
24302;BME280;12421;49.732;20.078;2022-08-11T18:38:59;97353.31;;;18.45;58.97
24302;BME280;12421;49.732;20.078;2022-08-11T18:49:23;97348.66;;;18.39;60.50
24302;BME280;12421;49.732;20.078;2022-08-11T18:59:47;97346.87;;;18.39;62.06
24302;BME280;12421;49.732;20.078;2022-08-11T19:10:10;97336.54;;;18.42;63.09
24302;BME280;12421;49.732;20.078;2022-08-11T19:20:33;97330.45;;;18.25;64.68
24302;BME280;12421;49.732;20.078;2022-08-11T19:30:54;97332.80;;;17.95;66.54
24302;BME280;12421;49.732;20.078;2022-08-11T19:41:16;97326.03;;;17.85;67.25
24302;BME280;12421;49.732;20.078;2022-08-11T19:51:37;97324.86;;;17.80;67.45
24302;BME280;12421;49.732;20.078;2022-08-11T20:01:58;97330.78;;;17.62;68.07
24302;BME280;12421;49.732;20.078;2022-08-11T20:12:20;97347.11;;;17.08;68.76
24302;BME280;12421;49.732;20.078;2022-08-11T20:22:41;97347.78;;;16.53;69.58
24302;BME280;12421;49.732;20.078;2022-08-11T20:33:03;97346.36;;;16.07;70.09
24302;BME280;12421;49.732;20.078;2022-08-11T20:43:25;97364.03;;;15.55;71.13
24302;BME280;12421;49.732;20.078;2022-08-11T20:53:47;97348.27;;;15.08;71.62
24302;BME280;12421;49.732;20.078;2022-08-11T21:04:08;97365.41;;;14.92;72.08
24302;BME280;12421;49.732;20.078;2022-08-11T21:14:30;97374.00;;;14.62;72.55
24302;BME280;12421;49.732;20.078;2022-08-11T21:24:55;97377.72;;;14.30;72.59
24302;BME280;12421;49.732;20.078;2022-08-11T21:35:17;97383.72;;;14.13;72.80
24302;BME280;12421;49.732;20.078;2022-08-11T21:45:39;97382.59;;;14.01;73.18
24302;BME280;12421;49.732;20.078;2022-08-11T21:56:00;97397.03;;;13.81;73.36
24302;BME280;12421;49.732;20.078;2022-08-11T22:06:21;97391.74;;;13.55;73.69
24302;BME280;12421;49.732;20.078;2022-08-11T22:16:41;97403.47;;;13.36;74.09
24302;BME280;12421;49.732;20.078;2022-08-11T22:27:08;97401.95;;;13.18;74.14
24302;BME280;12421;49.732;20.078;2022-08-11T22:37:34;97400.50;;;12.93;75.20
24302;BME280;12421;49.732;20.078;2022-08-11T22:47:57;97385.43;;;12.66;75.93
24302;BME280;12421;49.732;20.078;2022-08-11T22:58:18;97378.82;;;12.66;76.17
24302;BME280;12421;49.732;20.078;2022-08-11T23:08:41;97385.00;;;12.63;76.11
24302;BME280;12421;49.732;20.078;2022-08-11T23:19:03;97373.09;;;12.65;75.81
24302;BME280;12421;49.732;20.078;2022-08-11T23:29:25;97380.29;;;12.52;75.40
24302;BME280;12421;49.732;20.078;2022-08-11T23:39:46;97369.68;;;12.55;75.03
24302;BME280;12421;49.732;20.078;2022-08-11T23:50:07;97366.11;;;12.22;74.78
